sensor_id;sensor_type;location;lat;lon;timestamp;P1;durP1;ratioP1;P2;durP2;ratioP2
1753;SDS011;58380;48.312;9.246;2024-03-08T07:01:29;35.60;;;17.33;;
1753;SDS011;58380;48.312;9.246;2024-03-08T07:04:34;38.17;;;17.98;;
1753;SDS011;58380;48.312;9.246;2024-03-08T07:07:37;37.03;;;17.65;;
1753;SDS011;58380;48.312;9.246;2024-03-08T07:10:38;34.28;;;17.50;;
1753;SDS011;58380;48.312;9.246;2024-03-08T07:13:42;38.70;;;17.20;;
1753;SDS011;58380;48.312;9.246;2024-03-08T07:16:42;39.05;;;17.85;;
1753;SDS011;58380;48.312;9.246;2024-03-08T07:19:43;35.15;;;16.98;;
1753;SDS011;58380;48.312;9.246;2024-03-08T07:22:43;34.03;;;16.08;;
1753;SDS011;58380;48.312;9.246;2024-03-08T07:25:44;32.95;;;15.65;;
1753;SDS011;58380;48.312;9.246;2024-03-08T07:28:44;33.63;;;16.23;;
1753;SDS011;58380;48.312;9.246;2024-03-08T07:31:45;33.67;;;16.17;;
1753;SDS011;58380;48.312;9.246;2024-03-08T07:34:55;33.55;;;15.85;;
1753;SDS011;58380;48.312;9.246;2024-03-08T07:37:56;31.08;;;15.93;;
1753;SDS011;58380;48.312;9.246;2024-03-08T07:40:57;35.60;;;16.30;;
1753;SDS011;58380;48.312;9.246;2024-03-08T07:43:58;35.70;;;16.35;;
1753;SDS011;58380;48.312;9.246;2024-03-08T07:47:00;32.22;;;15.65;;
1753;SDS011;58380;48.312;9.246;2024-03-08T07:50:01;33.33;;;15.68;;
1753;SDS011;58380;48.312;9.246;2024-03-08T07:53:01;35.00;;;16.75;;
1753;SDS011;58380;48.312;9.246;2024-03-08T07:56:03;33.17;;;16.77;;
1753;SDS011;58380;48.312;9.246;2024-03-08T07:59:09;31.83;;;15.68;;
1753;SDS011;58380;48.312;9.246;2024-03-08T08:02:11;31.52;;;15.98;;
1753;SDS011;58380;48.312;9.246;2024-03-08T08:05:12;29.85;;;15.65;;
1753;SDS011;58380;48.312;9.246;2024-03-08T08:08:16;29.55;;;16.50;;
1753;SDS011;58380;48.312;9.246;2024-03-08T08:11:16;37.42;;;17.40;;
1753;SDS011;58380;48.312;9.246;2024-03-08T08:14:17;37.03;;;17.63;;
1753;SDS011;58380;48.312;9.246;2024-03-08T08:17:17;34.55;;;17.20;;
1753;SDS011;58380;48.312;9.246;2024-03-08T08:20:17;34.70;;;16.20;;
1753;SDS011;58380;48.312;9.246;2024-03-08T08:23:18;29.98;;;15.90;;
1753;SDS011;58380;48.312;9.246;2024-03-08T08:26:19;32.33;;;16.70;;
1753;SDS011;58380;48.312;9.246;2024-03-08T08:29:21;35.95;;;17.35;;
1753;SDS011;58380;48.312;9.246;2024-03-08T08:32:22;34.28;;;16.80;;
1753;SDS011;58380;48.312;9.246;2024-03-08T08:35:23;40.13;;;18.50;;
1753;SDS011;58380;48.312;9.246;2024-03-08T08:38:24;39.78;;;21.05;;
1753;SDS011;58380;48.312;9.246;2024-03-08T08:41:24;35.72;;;18.33;;
1753;SDS011;58380;48.312;9.246;2024-03-08T08:44:26;32.25;;;17.00;;
1753;SDS011;58380;48.312;9.246;2024-03-08T08:47:27;30.48;;;16.65;;
1753;SDS011;58380;48.312;9.246;2024-03-08T08:50:28;31.40;;;16.38;;
1753;SDS011;58380;48.312;9.246;2024-03-08T08:53:28;30.65;;;16.92;;
1753;SDS011;58380;48.312;9.246;2024-03-08T08:56:31;34.45;;;16.25;;
1753;SDS011;58380;48.312;9.246;2024-03-08T08:59:32;32.53;;;17.58;;
1753;SDS011;58380;48.312;9.246;2024-03-08T09:02:33;34.05;;;18.23;;
1753;SDS011;58380;48.312;9.246;2024-03-08T09:05:34;32.05;;;16.17;;
1753;SDS011;58380;48.312;9.246;2024-03-08T09:08:35;33.42;;;18.95;;
1753;SDS011;58380;48.312;9.246;2024-03-08T09:11:41;33.58;;;18.17;;
1753;SDS011;58380;48.312;9.246;2024-03-08T09:14:42;30.48;;;16.17;;
1753;SDS011;58380;48.312;9.246;2024-03-08T09:17:42;27.15;;;15.32;;
1753;SDS011;58380;48.312;9.246;2024-03-08T09:20:44;30.73;;;15.93;;
1753;SDS011;58380;48.312;9.246;2024-03-08T09:23:45;33.47;;;16.88;;
1753;SDS011;58380;48.312;9.246;2024-03-08T09:26:45;30.27;;;16.05;;
1753;SDS011;58380;48.312;9.246;2024-03-08T09:29:46;33.10;;;17.60;;
1753;SDS011;58380;48.312;9.246;2024-03-08T09:32:46;34.97;;;17.55;;
1753;SDS011;58380;48.312;9.246;2024-03-08T09:35:47;33.75;;;18.80;;
1753;SDS011;58380;48.312;9.246;2024-03-08T09:38:48;37.75;;;19.63;;
1753;SDS011;58380;48.312;9.246;2024-03-08T09:41:50;35.67;;;18.88;;
1753;SDS011;58380;48.312;9.246;2024-03-08T09:44:51;31.50;;;16.67;;
1753;SDS011;58380;48.312;9.246;2024-03-08T09:47:52;33.42;;;17.73;;
1753;SDS011;58380;48.312;9.246;2024-03-08T09:50:54;32.20;;;17.80;;
1753;SDS011;58380;48.312;9.246;2024-03-08T09:53:56;34.90;;;18.05;;
1753;SDS011;58380;48.312;9.246;2024-03-08T09:56:57;31.33;;;16.58;;
1753;SDS011;58380;48.312;9.246;2024-03-08T09:59:58;29.48;;;16.27;;
1753;SDS011;58380;48.312;9.246;2024-03-08T10:03:02;37.13;;;18.30;;
1753;SDS011;58380;48.312;9.246;2024-03-08T10:06:03;33.17;;;16.95;;
1753;SDS011;58380;48.312;9.246;2024-03-08T10:09:06;30.50;;;15.57;;
1753;SDS011;58380;48.312;9.246;2024-03-08T10:12:08;33.75;;;17.20;;
1753;SDS011;58380;48.312;9.246;2024-03-08T10:15:09;27.25;;;14.80;;
1753;SDS011;58380;48.312;9.246;2024-03-08T10:18:09;30.83;;;17.50;;
1753;SDS011;58380;48.312;9.246;2024-03-08T10:21:10;35.00;;;18.38;;
1753;SDS011;58380;48.312;9.246;2024-03-08T10:24:11;39.30;;;18.75;;
1753;SDS011;58380;48.312;9.246;2024-03-08T10:27:13;36.13;;;17.60;;
1753;SDS011;58380;48.312;9.246;2024-03-08T10:30:15;33.92;;;17.02;;
1753;SDS011;58380;48.312;9.246;2024-03-08T10:33:21;33.05;;;17.63;;
1753;SDS011;58380;48.312;9.246;2024-03-08T10:36:22;30.35;;;16.58;;
1753;SDS011;58380;48.312;9.246;2024-03-08T10:39:23;30.02;;;16.30;;
1753;SDS011;58380;48.312;9.246;2024-03-08T10:42:26;31.30;;;17.73;;
1753;SDS011;58380;48.312;9.246;2024-03-08T10:48:40;31.48;;;17.23;;
1753;SDS011;58380;48.312;9.246;2024-03-08T10:51:45;31.15;;;17.20;;
1753;SDS011;58380;48.312;9.246;2024-03-08T10:54:48;29.27;;;15.95;;
1753;SDS011;58380;48.312;9.246;2024-03-08T10:57:51;32.03;;;17.38;;
1753;SDS011;58380;48.312;9.246;2024-03-08T11:00:55;31.42;;;17.88;;
1753;SDS011;58380;48.312;9.246;2024-03-08T11:03:57;29.85;;;17.23;;
1753;SDS011;58380;48.312;9.246;2024-03-08T11:07:01;27.45;;;16.45;;
1753;SDS011;58380;48.312;9.246;2024-03-08T11:10:06;31.63;;;17.25;;
1753;SDS011;58380;48.312;9.246;2024-03-08T11:13:39;28.77;;;17.23;;
1753;SDS011;58380;48.312;9.246;2024-03-08T11:16:43;29.15;;;16.48;;
1753;SDS011;58380;48.312;9.246;2024-03-08T11:19:48;29.38;;;17.15;;
1753;SDS011;58380;48.312;9.246;2024-03-08T11:25:54;25.05;;;15.02;;
1753;SDS011;58380;48.312;9.246;2024-03-08T11:28:55;27.63;;;15.98;;
1753;SDS011;58380;48.312;9.246;2024-03-08T11:38:25;29.05;;;14.65;;
1753;SDS011;58380;48.312;9.246;2024-03-08T11:41:26;28.63;;;15.57;;
1753;SDS011;58380;48.312;9.246;2024-03-08T11:44:27;28.02;;;16.27;;
1753;SDS011;58380;48.312;9.246;2024-03-08T11:47:27;26.80;;;16.20;;
1753;SDS011;58380;48.312;9.246;2024-03-08T11:50:29;28.05;;;17.08;;
1753;SDS011;58380;48.312;9.246;2024-03-08T11:53:29;26.13;;;16.60;;
1753;SDS011;58380;48.312;9.246;2024-03-08T11:56:31;30.90;;;17.23;;
1753;SDS011;58380;48.312;9.246;2024-03-08T11:59:32;29.75;;;17.80;;
1753;SDS011;58380;48.312;9.246;2024-03-08T12:02:33;29.83;;;16.73;;
1753;SDS011;58380;48.312;9.246;2024-03-08T12:05:38;29.48;;;17.92;;
1753;SDS011;58380;48.312;9.246;2024-03-08T12:08:38;31.48;;;17.73;;
1753;SDS011;58380;48.312;9.246;2024-03-08T12:11:39;27.65;;;16.65;;
1753;SDS011;58380;48.312;9.246;2024-03-08T12:14:42;29.63;;;17.50;;
1753;SDS011;58380;48.312;9.246;2024-03-08T12:17:45;32.25;;;20.85;;
1753;SDS011;58380;48.312;9.246;2024-03-08T12:20:49;28.70;;;16.73;;
1753;SDS011;58380;48.312;9.246;2024-03-08T12:24:08;28.90;;;17.35;;
1753;SDS011;58380;48.312;9.246;2024-03-08T12:27:19;27.95;;;16.52;;
1753;SDS011;58380;48.312;9.246;2024-03-08T12:30:21;25.85;;;15.48;;
1753;SDS011;58380;48.312;9.246;2024-03-08T12:33:29;24.88;;;15.23;;
1753;SDS011;58380;48.312;9.246;2024-03-08T12:36:30;28.02;;;15.95;;
1753;SDS011;58380;48.312;9.246;2024-03-08T12:39:31;28.23;;;15.95;;
1753;SDS011;58380;48.312;9.246;2024-03-08T12:42:31;25.83;;;15.70;;
1753;SDS011;58380;48.312;9.246;2024-03-08T12:45:32;27.58;;;16.30;;
1753;SDS011;58380;48.312;9.246;2024-03-08T12:48:35;28.40;;;16.75;;
1753;SDS011;58380;48.312;9.246;2024-03-08T12:51:40;28.20;;;17.10;;
1753;SDS011;58380;48.312;9.246;2024-03-08T12:54:41;26.85;;;16.77;;
1753;SDS011;58380;48.312;9.246;2024-03-08T12:57:42;24.55;;;15.63;;
1753;SDS011;58380;48.312;9.246;2024-03-08T13:00:43;27.83;;;17.15;;
1753;SDS011;58380;48.312;9.246;2024-03-08T13:03:43;27.90;;;17.02;;
1753;SDS011;58380;48.312;9.246;2024-03-08T13:06:44;25.17;;;15.70;;
1753;SDS011;58380;48.312;9.246;2024-03-08T13:09:46;22.80;;;14.98;;
1753;SDS011;58380;48.312;9.246;2024-03-08T13:12:47;24.52;;;15.73;;
1753;SDS011;58380;48.312;9.246;2024-03-08T13:15:47;24.17;;;15.30;;
1753;SDS011;58380;48.312;9.246;2024-03-08T13:18:48;23.95;;;15.77;;
1753;SDS011;58380;48.312;9.246;2024-03-08T13:21:49;28.63;;;17.77;;
1753;SDS011;58380;48.312;9.246;2024-03-08T13:24:50;22.60;;;14.95;;
1753;SDS011;58380;48.312;9.246;2024-03-08T13:27:52;23.73;;;16.08;;
1753;SDS011;58380;48.312;9.246;2024-03-08T13:30:56;24.35;;;15.68;;
1753;SDS011;58380;48.312;9.246;2024-03-08T13:33:58;25.17;;;15.50;;
1753;SDS011;58380;48.312;9.246;2024-03-08T13:36:58;27.30;;;16.23;;
1753;SDS011;58380;48.312;9.246;2024-03-08T13:40:00;27.20;;;16.48;;
1753;SDS011;58380;48.312;9.246;2024-03-08T13:43:01;23.42;;;15.25;;
1753;SDS011;58380;48.312;9.246;2024-03-08T13:46:02;26.52;;;15.60;;
1753;SDS011;58380;48.312;9.246;2024-03-08T13:49:04;22.75;;;14.65;;
1753;SDS011;58380;48.312;9.246;2024-03-08T13:52:07;22.00;;;14.25;;
1753;SDS011;58380;48.312;9.246;2024-03-08T13:55:08;20.92;;;13.90;;
1753;SDS011;58380;48.312;9.246;2024-03-08T13:58:08;23.23;;;14.77;;
1753;SDS011;58380;48.312;9.246;2024-03-08T14:01:09;21.33;;;14.85;;
1753;SDS011;58380;48.312;9.246;2024-03-08T14:04:12;21.33;;;14.15;;
1753;SDS011;58380;48.312;9.246;2024-03-08T14:07:12;21.45;;;13.75;;
1753;SDS011;58380;48.312;9.246;2024-03-08T14:10:13;21.58;;;13.80;;
1753;SDS011;58380;48.312;9.246;2024-03-08T14:13:17;22.27;;;13.05;;
1753;SDS011;58380;48.312;9.246;2024-03-08T14:16:18;18.95;;;12.70;;
1753;SDS011;58380;48.312;9.246;2024-03-08T14:19:19;21.10;;;12.70;;
1753;SDS011;58380;48.312;9.246;2024-03-08T14:22:20;20.80;;;13.52;;
1753;SDS011;58380;48.312;9.246;2024-03-08T14:25:21;22.40;;;13.75;;
1753;SDS011;58380;48.312;9.246;2024-03-08T14:28:23;21.05;;;13.95;;
1753;SDS011;58380;48.312;9.246;2024-03-08T14:31:24;21.50;;;13.80;;
1753;SDS011;58380;48.312;9.246;2024-03-08T14:34:25;19.40;;;12.52;;
1753;SDS011;58380;48.312;9.246;2024-03-08T14:37:30;22.58;;;14.70;;
1753;SDS011;58380;48.312;9.246;2024-03-08T14:40:31;21.35;;;13.27;;
1753;SDS011;58380;48.312;9.246;2024-03-08T14:43:32;21.90;;;13.70;;
1753;SDS011;58380;48.312;9.246;2024-03-08T14:46:32;19.50;;;12.20;;
1753;SDS011;58380;48.312;9.246;2024-03-08T14:49:33;19.95;;;12.90;;
1753;SDS011;58380;48.312;9.246;2024-03-08T14:52:36;19.50;;;12.68;;
1753;SDS011;58380;48.312;9.246;2024-03-08T14:55:39;21.17;;;12.32;;
1753;SDS011;58380;48.312;9.246;2024-03-08T14:58:43;19.67;;;11.63;;
1753;SDS011;58380;48.312;9.246;2024-03-08T15:01:49;19.10;;;12.70;;
1753;SDS011;58380;48.312;9.246;2024-03-08T15:04:50;19.77;;;11.73;;
1753;SDS011;58380;48.312;9.246;2024-03-08T15:07:56;22.17;;;12.82;;
1753;SDS011;58380;48.312;9.246;2024-03-08T15:10:57;23.30;;;12.95;;
1753;SDS011;58380;48.312;9.246;2024-03-08T15:13:58;21.13;;;12.95;;
1753;SDS011;58380;48.312;9.246;2024-03-08T15:17:00;20.15;;;13.02;;
1753;SDS011;58380;48.312;9.246;2024-03-08T15:20:07;20.08;;;12.93;;
1753;SDS011;58380;48.312;9.246;2024-03-08T15:23:23;20.40;;;13.05;;
1753;SDS011;58380;48.312;9.246;2024-03-08T15:26:24;20.45;;;13.07;;
1753;SDS011;58380;48.312;9.246;2024-03-08T15:29:25;22.60;;;12.95;;
1753;SDS011;58380;48.312;9.246;2024-03-08T15:32:26;22.58;;;13.07;;
1753;SDS011;58380;48.312;9.246;2024-03-08T15:35:27;22.02;;;13.57;;
1753;SDS011;58380;48.312;9.246;2024-03-08T15:38:28;21.27;;;13.93;;
1753;SDS011;58380;48.312;9.246;2024-03-08T15:41:28;24.65;;;14.40;;
1753;SDS011;58380;48.312;9.246;2024-03-08T15:44:29;24.73;;;14.93;;
1753;SDS011;58380;48.312;9.246;2024-03-08T15:47:30;24.02;;;14.43;;
1753;SDS011;58380;48.312;9.246;2024-03-08T15:50:31;24.52;;;15.32;;
1753;SDS011;58380;48.312;9.246;2024-03-08T15:53:32;25.33;;;15.38;;
1753;SDS011;58380;48.312;9.246;2024-03-08T15:56:34;23.67;;;15.20;;
1753;SDS011;58380;48.312;9.246;2024-03-08T15:59:36;26.05;;;15.98;;
1753;SDS011;58380;48.312;9.246;2024-03-08T16:02:38;23.77;;;14.80;;
1753;SDS011;58380;48.312;9.246;2024-03-08T16:05:41;24.50;;;15.32;;
1753;SDS011;58380;48.312;9.246;2024-03-08T16:08:45;27.02;;;16.20;;
1753;SDS011;58380;48.312;9.246;2024-03-08T16:11:46;24.75;;;15.93;;
1753;SDS011;58380;48.312;9.246;2024-03-08T16:14:48;29.88;;;16.70;;
1753;SDS011;58380;48.312;9.246;2024-03-08T16:17:49;28.20;;;16.83;;
1753;SDS011;58380;48.312;9.246;2024-03-08T16:20:53;27.25;;;16.35;;
1753;SDS011;58380;48.312;9.246;2024-03-08T16:23:55;22.67;;;15.57;;
1753;SDS011;58380;48.312;9.246;2024-03-08T16:26:55;25.20;;;15.77;;
1753;SDS011;58380;48.312;9.246;2024-03-08T16:29:56;26.17;;;16.75;;
1753;SDS011;58380;48.312;9.246;2024-03-08T16:32:56;26.00;;;16.73;;
1753;SDS011;58380;48.312;9.246;2024-03-08T16:35:57;27.65;;;16.95;;
1753;SDS011;58380;48.312;9.246;2024-03-08T16:38:57;28.88;;;17.25;;
1753;SDS011;58380;48.312;9.246;2024-03-08T16:41:58;31.33;;;17.88;;
1753;SDS011;58380;48.312;9.246;2024-03-08T16:44:58;31.52;;;19.30;;
1753;SDS011;58380;48.312;9.246;2024-03-08T16:48:00;30.98;;;17.83;;
1753;SDS011;58380;48.312;9.246;2024-03-08T16:51:04;28.88;;;18.05;;
1753;SDS011;58380;48.312;9.246;2024-03-08T16:54:08;29.02;;;18.10;;
1753;SDS011;58380;48.312;9.246;2024-03-08T16:57:08;27.27;;;16.63;;
1753;SDS011;58380;48.312;9.246;2024-03-08T17:00:14;29.77;;;17.58;;
1753;SDS011;58380;48.312;9.246;2024-03-08T17:03:27;29.48;;;17.30;;
1753;SDS011;58380;48.312;9.246;2024-03-08T17:06:27;30.48;;;17.77;;
1753;SDS011;58380;48.312;9.246;2024-03-08T17:09:28;31.60;;;18.15;;
1753;SDS011;58380;48.312;9.246;2024-03-08T17:12:28;28.15;;;16.52;;
1753;SDS011;58380;48.312;9.246;2024-03-08T17:15:29;26.85;;;17.05;;
1753;SDS011;58380;48.312;9.246;2024-03-08T17:18:31;27.40;;;15.52;;
1753;SDS011;58380;48.312;9.246;2024-03-08T17:21:33;30.27;;;17.52;;
1753;SDS011;58380;48.312;9.246;2024-03-08T17:24:35;28.10;;;17.15;;
1753;SDS011;58380;48.312;9.246;2024-03-08T17:27:36;29.77;;;17.60;;
1753;SDS011;58380;48.312;9.246;2024-03-08T17:30:36;27.98;;;17.33;;
1753;SDS011;58380;48.312;9.246;2024-03-08T17:33:40;29.10;;;15.95;;
1753;SDS011;58380;48.312;9.246;2024-03-08T17:36:45;27.30;;;16.58;;
1753;SDS011;58380;48.312;9.246;2024-03-08T17:39:46;27.45;;;16.73;;
1753;SDS011;58380;48.312;9.246;2024-03-08T17:42:46;32.55;;;16.83;;
1753;SDS011;58380;48.312;9.246;2024-03-08T17:45:47;28.13;;;16.85;;
1753;SDS011;58380;48.312;9.246;2024-03-08T17:48:48;29.98;;;16.02;;
1753;SDS011;58380;48.312;9.246;2024-03-08T17:51:48;27.45;;;15.50;;
1753;SDS011;58380;48.312;9.246;2024-03-08T17:54:49;26.25;;;15.30;;
1753;SDS011;58380;48.312;9.246;2024-03-08T17:57:50;23.65;;;14.65;;
1753;SDS011;58380;48.312;9.246;2024-03-08T18:00:52;27.05;;;15.80;;
1753;SDS011;58380;48.312;9.246;2024-03-08T18:03:53;28.02;;;15.02;;
1753;SDS011;58380;48.312;9.246;2024-03-08T18:06:55;29.42;;;15.57;;
1753;SDS011;58380;48.312;9.246;2024-03-08T18:09:56;23.90;;;14.07;;
1753;SDS011;58380;48.312;9.246;2024-03-08T18:12:57;25.00;;;14.95;;
1753;SDS011;58380;48.312;9.246;2024-03-08T18:15:59;25.70;;;14.05;;
1753;SDS011;58380;48.312;9.246;2024-03-08T18:19:00;24.45;;;14.20;;
1753;SDS011;58380;48.312;9.246;2024-03-08T18:22:07;27.70;;;14.27;;
1753;SDS011;58380;48.312;9.246;2024-03-08T18:25:08;25.23;;;14.73;;
1753;SDS011;58380;48.312;9.246;2024-03-08T18:28:14;21.23;;;13.05;;
1753;SDS011;58380;48.312;9.246;2024-03-08T18:31:16;21.80;;;13.57;;
1753;SDS011;58380;48.312;9.246;2024-03-08T18:34:20;20.55;;;12.63;;
1753;SDS011;58380;48.312;9.246;2024-03-08T18:37:20;21.80;;;13.25;;
1753;SDS011;58380;48.312;9.246;2024-03-08T18:40:22;21.13;;;12.50;;
1753;SDS011;58380;48.312;9.246;2024-03-08T18:43:23;25.02;;;12.70;;
1753;SDS011;58380;48.312;9.246;2024-03-08T18:46:25;22.40;;;13.40;;
1753;SDS011;58380;48.312;9.246;2024-03-08T18:49:27;20.45;;;12.70;;
1753;SDS011;58380;48.312;9.246;2024-03-08T18:52:27;24.35;;;13.40;;
1753;SDS011;58380;48.312;9.246;2024-03-08T18:55:28;21.08;;;11.80;;
1753;SDS011;58380;48.312;9.246;2024-03-08T18:58:31;20.75;;;12.60;;
1753;SDS011;58380;48.312;9.246;2024-03-08T19:01:35;20.20;;;11.68;;
1753;SDS011;58380;48.312;9.246;2024-03-08T19:04:36;19.35;;;12.15;;
1753;SDS011;58380;48.312;9.246;2024-03-08T19:07:42;21.13;;;11.90;;
1753;SDS011;58380;48.312;9.246;2024-03-08T19:10:44;20.27;;;11.50;;
1753;SDS011;58380;48.312;9.246;2024-03-08T19:13:45;19.45;;;11.85;;
1753;SDS011;58380;48.312;9.246;2024-03-08T19:16:46;20.58;;;11.88;;
1753;SDS011;58380;48.312;9.246;2024-03-08T19:19:47;19.52;;;11.52;;
1753;SDS011;58380;48.312;9.246;2024-03-08T19:22:49;22.23;;;13.02;;
1753;SDS011;58380;48.312;9.246;2024-03-08T19:25:53;19.90;;;11.73;;
1753;SDS011;58380;48.312;9.246;2024-03-08T19:28:54;19.38;;;11.38;;
1753;SDS011;58380;48.312;9.246;2024-03-08T19:31:54;21.75;;;10.82;;
1753;SDS011;58380;48.312;9.246;2024-03-08T19:34:58;17.88;;;11.35;;
1753;SDS011;58380;48.312;9.246;2024-03-08T19:38:00;19.02;;;11.48;;
1753;SDS011;58380;48.312;9.246;2024-03-08T19:41:00;17.55;;;11.15;;
1753;SDS011;58380;48.312;9.246;2024-03-08T19:44:02;21.60;;;11.48;;
1753;SDS011;58380;48.312;9.246;2024-03-08T19:47:07;19.33;;;11.85;;
1753;SDS011;58380;48.312;9.246;2024-03-08T19:50:12;20.42;;;11.45;;
1753;SDS011;58380;48.312;9.246;2024-03-08T19:53:16;18.38;;;11.00;;
1753;SDS011;58380;48.312;9.246;2024-03-08T19:56:17;19.35;;;11.10;;
1753;SDS011;58380;48.312;9.246;2024-03-08T19:59:17;19.90;;;11.90;;
1753;SDS011;58380;48.312;9.246;2024-03-08T20:02:19;18.98;;;12.02;;
1753;SDS011;58380;48.312;9.246;2024-03-08T20:05:19;20.85;;;12.02;;
1753;SDS011;58380;48.312;9.246;2024-03-08T20:08:20;17.27;;;11.57;;
1753;SDS011;58380;48.312;9.246;2024-03-08T20:11:22;21.15;;;12.52;;
1753;SDS011;58380;48.312;9.246;2024-03-08T20:14:24;19.95;;;11.88;;
1753;SDS011;58380;48.312;9.246;2024-03-08T20:17:26;19.55;;;11.90;;
1753;SDS011;58380;48.312;9.246;2024-03-08T20:20:28;24.13;;;12.80;;
1753;SDS011;58380;48.312;9.246;2024-03-08T20:23:29;20.50;;;11.95;;
1753;SDS011;58380;48.312;9.246;2024-03-08T20:26:29;18.35;;;12.00;;
1753;SDS011;58380;48.312;9.246;2024-03-08T20:29:30;19.77;;;11.48;;
1753;SDS011;58380;48.312;9.246;2024-03-08T20:32:31;20.45;;;11.82;;
1753;SDS011;58380;48.312;9.246;2024-03-08T20:35:32;19.42;;;11.52;;
1753;SDS011;58380;48.312;9.246;2024-03-08T20:38:33;22.77;;;12.73;;
1753;SDS011;58380;48.312;9.246;2024-03-08T20:41:35;20.52;;;11.98;;
1753;SDS011;58380;48.312;9.246;2024-03-08T20:44:36;22.25;;;11.85;;
1753;SDS011;58380;48.312;9.246;2024-03-08T20:47:40;22.88;;;13.55;;
1753;SDS011;58380;48.312;9.246;2024-03-08T20:50:41;21.02;;;12.68;;
1753;SDS011;58380;48.312;9.246;2024-03-08T20:53:43;21.48;;;11.98;;
1753;SDS011;58380;48.312;9.246;2024-03-08T20:56:44;20.60;;;11.95;;
1753;SDS011;58380;48.312;9.246;2024-03-08T20:59:45;22.85;;;12.75;;
1753;SDS011;58380;48.312;9.246;2024-03-08T21:02:46;22.60;;;12.73;;
1753;SDS011;58380;48.312;9.246;2024-03-08T21:05:46;20.30;;;12.10;;
1753;SDS011;58380;48.312;9.246;2024-03-08T21:08:58;20.92;;;12.02;;
1753;SDS011;58380;48.312;9.246;2024-03-08T21:11:59;21.40;;;12.00;;
1753;SDS011;58380;48.312;9.246;2024-03-08T21:15:00;23.25;;;12.80;;
1753;SDS011;58380;48.312;9.246;2024-03-08T21:18:04;20.90;;;12.32;;
1753;SDS011;58380;48.312;9.246;2024-03-08T21:21:04;21.30;;;12.73;;
1753;SDS011;58380;48.312;9.246;2024-03-08T21:24:06;22.45;;;13.05;;
1753;SDS011;58380;48.312;9.246;2024-03-08T21:27:06;20.73;;;12.77;;
